Time;durP1;ratioP1;P1;durP2;ratioP2;P2;SDS_P1;SDS_P2;PMS_P1;PMS_P2;Temp;Humidity;BMP_temperature;BMP_pressure;BME280_temperature;BME280_humidity;BME280_pressure;Samples;Min_cycle;Max_cycle;Signal;HPM_P1;HPM_P2
2023/03/04 00:01:19;;;;;;;3.35;0.80;;;24.70;99.90;;;;;;5046370;28;20205;-77
2023/03/04 00:03:52;;;;;;;1.70;0.30;;;24.80;99.90;;;;;;5041707;28;20202;-79
2023/03/04 00:06:23;;;;;;;1.65;0.50;;;24.80;99.90;;;;;;5051407;28;20197;-88
2023/03/04 00:08:54;;;;;;;3.28;0.47;;;24.80;99.90;;;;;;5035432;28;20652;-87
2023/03/04 00:11:25;;;;;;;6.40;0.82;;;24.80;99.90;;;;;;5051881;28;20710;-86
2023/03/04 00:13:57;;;;;;;1.55;0.50;;;24.80;99.90;;;;;;5052735;28;20225;-85
2023/03/04 00:16:28;;;;;;;1.35;0.40;;;24.80;99.90;;;;;;5053034;28;20644;-78
2023/03/04 00:19:01;;;;;;;1.20;0.57;;;24.80;99.90;;;;;;5053685;28;20190;-85
2023/03/04 00:21:32;;;;;;;4.63;0.60;;;24.80;99.90;;;;;;5053101;28;20217;-81
2023/03/04 00:24:03;;;;;;;1.55;0.57;;;24.80;99.90;;;;;;5044370;28;20197;-77
2023/03/04 00:26:34;;;;;;;3.42;0.55;;;24.80;99.90;;;;;;5049157;28;20200;-84
2023/03/04 00:29:05;;;;;;;3.70;0.60;;;24.70;99.90;;;;;;5042738;28;20205;-88
2023/03/04 00:31:37;;;;;;;2.30;0.63;;;24.80;99.90;;;;;;5048967;28;20704;-82
2023/03/04 00:34:10;;;;;;;2.20;0.75;;;24.80;99.90;;;;;;5046156;28;20232;-78
2023/03/04 00:36:43;;;;;;;6.07;0.80;;;25.00;99.90;;;;;;5047842;28;20189;-80
2023/03/04 00:39:14;;;;;;;2.13;0.50;;;25.00;99.90;;;;;;5044520;28;20193;-85
2023/03/04 00:41:45;;;;;;;2.65;0.65;;;24.90;99.90;;;;;;5050344;28;20679;-84
2023/03/04 00:44:16;;;;;;;5.18;0.80;;;24.80;99.90;;;;;;5045955;28;20675;-83
2023/03/04 00:46:47;;;;;;;3.03;0.45;;;24.90;99.90;;;;;;5043499;28;20285;-80
2023/03/04 00:49:20;;;;;;;4.72;0.82;;;24.80;99.90;;;;;;5053857;28;20213;-78
2023/03/04 00:51:51;;;;;;;81.05;9.40;;;24.90;99.90;;;;;;5057884;28;20221;-81
2023/03/04 00:54:22;;;;;;;10.25;1.95;;;25.00;99.90;;;;;;5054075;28;20819;-79
2023/03/04 00:56:53;;;;;;;12.38;1.75;;;25.20;99.90;;;;;;5046091;28;20549;-81
2023/03/04 00:59:25;;;;;;;3.47;0.65;;;25.40;99.90;;;;;;5056306;28;20288;-83
2023/03/04 01:01:56;;;;;;;2.45;0.65;;;25.40;99.90;;;;;;5056431;28;20223;-77
2023/03/04 01:04:29;;;;;;;48.78;5.95;;;25.40;99.90;;;;;;5056207;28;20209;-78
2023/03/04 01:07:00;;;;;;;11.70;1.77;;;25.40;99.90;;;;;;5055824;28;20653;-79
2023/03/04 01:09:31;;;;;;;10.73;1.30;;;25.40;99.90;;;;;;5057687;28;20236;-83
2023/03/04 01:12:02;;;;;;;4.15;0.88;;;25.50;99.90;;;;;;5057609;28;20248;-79
2023/03/04 01:14:33;;;;;;;3.75;0.73;;;25.70;99.90;;;;;;5056735;28;20190;-79
2023/03/04 01:17:05;;;;;;;3.75;0.70;;;26.10;99.90;;;;;;5054797;28;20559;-85
2023/03/04 01:19:38;;;;;;;3.17;0.60;;;26.40;99.90;;;;;;5054720;28;20211;-85
2023/03/04 01:22:09;;;;;;;6.85;2.22;;;26.40;99.90;;;;;;5057168;28;20193;-80
2023/03/04 01:24:41;;;;;;;2.92;0.70;;;26.40;99.90;;;;;;5056983;28;20613;-81
2023/03/04 01:27:12;;;;;;;4.18;0.70;;;26.50;99.90;;;;;;5054691;28;20213;-80
2023/03/04 01:29:43;;;;;;;9.98;1.10;;;26.60;99.90;;;;;;5045898;28;20189;-82
2023/03/04 01:32:14;;;;;;;144.15;8.65;;;26.90;99.90;;;;;;5055930;28;20209;-83
2023/03/04 01:34:47;;;;;;;5.63;0.98;;;26.90;99.90;;;;;;5056495;28;20190;-79
2023/03/04 01:37:18;;;;;;;4.07;0.68;;;27.00;99.90;;;;;;5044646;28;20198;-80
2023/03/04 01:39:49;;;;;;;8.00;1.05;;;26.70;99.90;;;;;;5055769;28;20190;-79
2023/03/04 01:42:22;;;;;;;2.78;0.73;;;26.50;99.90;;;;;;5056202;28;20196;-76
2023/03/04 01:44:54;;;;;;;2.58;0.70;;;26.30;99.90;;;;;;5056389;28;20286;-82
2023/03/04 01:47:27;;;;;;;4.00;0.80;;;26.20;99.90;;;;;;5056584;28;20202;-83
2023/03/04 01:50:03;;;;;;;2.58;0.60;;;26.50;99.90;;;;;;5057000;28;20186;-78
2023/03/04 01:52:34;;;;;;;3.28;0.60;;;26.60;99.90;;;;;;5057114;28;20213;-78
2023/03/04 01:55:08;;;;;;;5.30;0.90;;;26.80;99.90;;;;;;5057876;28;20193;-86
2023/03/04 01:57:41;;;;;;;4.47;0.47;;;26.80;99.90;;;;;;5054828;28;20679;-81
2023/03/04 02:00:22;;;;;;;4.13;1.35;;;26.40;99.90;;;;;;5054476;28;20205;-80
2023/03/04 02:02:55;;;;;;;27.33;6.60;;;26.20;99.90;;;;;;5050319;28;20606;-83
2023/03/04 02:05:28;;;;;;;20.13;5.10;;;26.10;99.90;;;;;;5055575;28;20212;-79
2023/03/04 02:08:02;;;;;;;24.73;5.10;;;25.90;99.90;;;;;;5041340;22;20239;-73
2023/03/04 02:10:34;;;;;;;5.65;1.00;;;25.90;99.90;;;;;;5012015;28;20199;-75
2023/03/04 02:13:05;;;;;;;4.25;0.73;;;25.90;99.90;;;;;;5015482;28;20218;-75
2023/03/04 02:15:36;;;;;;;3.60;0.75;;;25.90;99.90;;;;;;5018862;28;20203;-76
2023/03/04 02:18:15;;;;;;;3.72;0.60;;;25.80;99.90;;;;;;5014652;28;20199;-77
2023/03/04 02:20:58;;;;;;;3.97;0.60;;;25.80;99.90;;;;;;5014454;28;20191;-77
2023/03/04 02:23:37;;;;;;;2.35;0.60;;;25.70;99.90;;;;;;5013602;28;20203;-77
2023/03/04 02:26:19;;;;;;;3.38;0.65;;;25.80;99.90;;;;;;5014893;28;20199;-78
2023/03/04 02:28:55;;;;;;;4.72;0.60;;;25.90;99.90;;;;;;5032009;28;20680;-77
2023/03/04 02:31:29;;;;;;;2.10;0.60;;;26.00;99.90;;;;;;5014775;28;20187;-78
2023/03/04 02:34:03;;;;;;;2.22;0.47;;;26.00;99.90;;;;;;5013733;28;20194;-78
2023/03/04 02:36:36;;;;;;;3.92;0.70;;;25.90;99.90;;;;;;4995633;28;20279;-78
2023/03/04 02:39:12;;;;;;;2.65;0.60;;;25.80;99.90;;;;;;5001202;28;20208;-79
2023/03/04 02:41:45;;;;;;;3.15;0.82;;;25.90;99.90;;;;;;5014817;28;20190;-77
2023/03/04 02:44:21;;;;;;;4.50;0.65;;;25.90;99.90;;;;;;5000299;28;20195;-76
2023/03/04 02:46:53;;;;;;;2.78;0.60;;;25.90;99.90;;;;;;5011213;28;20677;-77
2023/03/04 02:49:25;;;;;;;3.40;0.80;;;25.80;99.90;;;;;;5013114;28;20213;-75
2023/03/04 02:52:02;;;;;;;2.65;0.65;;;25.70;99.90;;;;;;4994395;28;20219;-76
2023/03/04 02:54:33;;;;;;;2.45;0.63;;;25.70;99.90;;;;;;5014416;28;20197;-77
2023/03/04 02:57:08;;;;;;;2.67;0.80;;;25.70;99.90;;;;;;5013067;28;20198;-76
2023/03/04 02:59:40;;;;;;;2.95;0.70;;;25.90;99.90;;;;;;5029319;28;20695;-73
2023/03/04 03:02:11;;;;;;;1.65;0.50;;;26.00;99.90;;;;;;5022077;28;20219;-73
2023/03/04 03:04:43;;;;;;;2.00;0.50;;;26.00;99.90;;;;;;5016794;28;20206;-75
2023/03/04 03:07:15;;;;;;;2.75;0.50;;;26.00;99.90;;;;;;5018014;28;20231;-77
2023/03/04 03:09:46;;;;;;;2.85;0.43;;;26.00;99.90;;;;;;5013879;28;20321;-76
2023/03/04 03:12:19;;;;;;;1.77;0.38;;;25.90;99.90;;;;;;5013023;28;20230;-76
2023/03/04 03:14:50;;;;;;;2.60;0.63;;;25.80;99.90;;;;;;5015243;28;20199;-75
2023/03/04 03:17:21;;;;;;;2.95;0.80;;;25.90;99.90;;;;;;5013363;28;20195;-76
2023/03/04 03:19:52;;;;;;;1.02;0.55;;;25.90;99.90;;;;;;5014311;28;20199;-76
2023/03/04 03:22:23;;;;;;;2.60;0.60;;;25.90;99.90;;;;;;5005178;28;20234;-74
2023/03/04 03:24:54;;;;;;;3.67;0.50;;;25.90;99.90;;;;;;5016842;28;20189;-75
2023/03/04 03:27:27;;;;;;;3.25;0.50;;;25.90;99.90;;;;;;5026823;28;20194;-74
2023/03/04 03:29:58;;;;;;;3.65;0.60;;;25.90;99.90;;;;;;5018012;28;20605;-75
2023/03/04 03:32:29;;;;;;;3.47;0.68;;;25.90;99.90;;;;;;5012857;28;20218;-74
2023/03/04 03:35:00;;;;;;;2.10;0.40;;;25.90;99.90;;;;;;5014335;28;20199;-74
2023/03/04 03:37:31;;;;;;;0.80;0.30;;;26.00;99.90;;;;;;5013831;28;20666;-74
2023/03/04 03:40:03;;;;;;;1.65;0.50;;;26.00;99.90;;;;;;5015961;28;20241;-75
2023/03/04 03:42:36;;;;;;;2.90;0.55;;;25.90;99.90;;;;;;5016362;28;20198;-75
2023/03/04 03:45:07;;;;;;;1.83;0.43;;;25.70;99.90;;;;;;5014805;28;20207;-74
2023/03/04 03:47:38;;;;;;;1.17;0.47;;;25.60;99.90;;;;;;5010665;28;20206;-74
2023/03/04 03:50:10;;;;;;;3.10;0.70;;;25.60;99.90;;;;;;5015746;28;20249;-74
2023/03/04 03:52:41;;;;;;;2.42;0.60;;;25.60;99.90;;;;;;5011951;28;20211;-74
2023/03/04 03:55:15;;;;;;;4.18;0.73;;;25.60;99.90;;;;;;5012990;28;20219;-75
2023/03/04 03:57:48;;;;;;;3.92;0.60;;;25.50;99.90;;;;;;5016685;28;20672;-74
2023/03/04 04:00:20;;;;;;;2.72;0.70;;;25.50;99.90;;;;;;5010243;28;20548;-73
2023/03/04 04:02:51;;;;;;;3.58;0.63;;;25.50;99.90;;;;;;5016922;28;20194;-75
2023/03/04 04:05:25;;;;;;;3.88;0.50;;;25.40;99.90;;;;;;5012747;28;20187;-77
2023/03/04 04:07:56;;;;;;;2.53;0.43;;;25.40;99.90;;;;;;5012967;28;20235;-74
2023/03/04 04:10:27;;;;;;;3.38;0.57;;;25.30;99.90;;;;;;5025603;28;20661;-77
2023/03/04 04:13:01;;;;;;;2.25;0.73;;;25.20;99.90;;;;;;5013571;28;20305;-78
2023/03/04 04:15:32;;;;;;;2.67;0.50;;;25.20;99.90;;;;;;5005062;28;20298;-74
2023/03/04 04:18:03;;;;;;;2.05;0.55;;;25.30;99.90;;;;;;4994123;28;20194;-76
2023/03/04 04:20:35;;;;;;;5.60;0.80;;;25.30;99.90;;;;;;4994410;28;20198;-77
2023/03/04 04:23:06;;;;;;;2.90;0.65;;;25.30;99.90;;;;;;5006346;28;20294;-75
2023/03/04 04:25:38;;;;;;;2.88;0.65;;;25.40;99.90;;;;;;5017640;28;20630;-78
2023/03/04 04:28:11;;;;;;;2.78;0.60;;;25.60;99.90;;;;;;5017302;28;20195;-79
2023/03/04 04:30:42;;;;;;;6.90;0.50;;;25.80;99.90;;;;;;5017444;28;20630;-78
2023/03/04 04:33:13;;;;;;;2.58;0.60;;;25.70;99.90;;;;;;5017234;28;20685;-78
2023/03/04 04:35:44;;;;;;;5.55;1.30;;;25.80;99.90;;;;;;5017360;28;20187;-75
2023/03/04 04:38:15;;;;;;;3.80;0.85;;;26.00;99.90;;;;;;5016849;28;20218;-78
2023/03/04 04:40:46;;;;;;;6.03;1.33;;;26.10;99.90;;;;;;5017218;28;20649;-79
2023/03/04 04:43:20;;;;;;;5.90;1.38;;;26.10;99.90;;;;;;5017072;28;20356;-77
2023/03/04 04:45:51;;;;;;;5.07;0.90;;;26.40;99.90;;;;;;5028997;28;20274;-77
2023/03/04 04:48:22;;;;;;;2.28;0.80;;;26.30;99.90;;;;;;5016972;28;20282;-76
2023/03/04 04:50:57;;;;;;;2.75;0.80;;;26.50;99.90;;;;;;5005469;28;20616;-78
2023/03/04 04:53:28;;;;;;;4.20;0.90;;;26.40;99.90;;;;;;4997543;28;20223;-82
2023/03/04 04:56:00;;;;;;;3.00;0.80;;;26.30;99.90;;;;;;4997237;28;20230;-78
2023/03/04 04:58:33;;;;;;;2.92;0.80;;;26.30;99.90;;;;;;5016759;28;20199;-77
2023/03/04 05:01:04;;;;;;;3.55;0.50;;;26.10;99.90;;;;;;5016728;28;20191;-76
2023/03/04 05:03:35;;;;;;;3.63;0.50;;;26.00;99.90;;;;;;5016333;28;20195;-77
2023/03/04 05:06:08;;;;;;;3.85;0.70;;;25.90;99.90;;;;;;5016327;28;20229;-78
2023/03/04 05:08:40;;;;;;;5.40;0.70;;;25.80;99.90;;;;;;5016542;28;20238;-77
2023/03/04 05:11:11;;;;;;;2.05;0.60;;;25.80;99.90;;;;;;5016416;28;20225;-78
2023/03/04 05:13:44;;;;;;;2.40;0.63;;;25.80;99.90;;;;;;5016502;28;20573;-75
2023/03/04 05:16:15;;;;;;;2.70;0.60;;;25.90;99.90;;;;;;5016308;28;20195;-79
2023/03/04 05:18:47;;;;;;;2.10;0.60;;;26.00;99.90;;;;;;5016498;28;20198;-79
2023/03/04 05:21:18;;;;;;;2.28;0.50;;;26.00;99.90;;;;;;5016872;28;20191;-77
2023/03/04 05:23:49;;;;;;;1.05;0.50;;;25.90;99.90;;;;;;5012073;28;20210;-78
2023/03/04 05:26:21;;;;;;;4.00;0.68;;;25.80;99.90;;;;;;5010572;28;20218;-79
2023/03/04 05:28:54;;;;;;;4.72;0.50;;;25.80;99.90;;;;;;5016298;28;20194;-77
2023/03/04 05:31:25;;;;;;;2.38;0.60;;;25.60;99.90;;;;;;5015697;28;20194;-77
2023/03/04 05:33:56;;;;;;;2.95;0.60;;;25.50;99.90;;;;;;5005490;28;20211;-76
2023/03/04 05:36:27;;;;;;;1.08;0.43;;;25.40;99.90;;;;;;5015519;28;20198;-75
2023/03/04 05:38:58;;;;;;;2.63;0.70;;;25.40;99.90;;;;;;5016436;28;20650;-73
2023/03/04 05:41:29;;;;;;;3.90;0.63;;;25.20;99.90;;;;;;5016459;28;20229;-76
2023/03/04 05:44:03;;;;;;;6.80;0.75;;;25.10;99.90;;;;;;5015914;28;20195;-77
2023/03/04 05:46:34;;;;;;;3.72;0.95;;;25.10;99.90;;;;;;5015758;28;20201;-75
2023/03/04 05:49:05;;;;;;;3.58;0.70;;;25.20;99.90;;;;;;5013399;28;20225;-75
2023/03/04 05:51:36;;;;;;;3.53;0.80;;;25.30;99.90;;;;;;5015295;28;20191;-75
2023/03/04 05:54:07;;;;;;;1.33;0.47;;;25.40;99.90;;;;;;5014415;28;20226;-75
2023/03/04 05:56:38;;;;;;;4.38;0.70;;;25.40;99.90;;;;;;5015370;28;20199;-77
2023/03/04 05:59:11;;;;;;;3.22;0.73;;;25.40;99.90;;;;;;5015118;28;20193;-77
2023/03/04 06:01:42;;;;;;;3.13;0.68;;;25.40;99.90;;;;;;5015427;28;20214;-77
2023/03/04 06:04:13;;;;;;;3.92;0.60;;;25.50;99.90;;;;;;5015518;28;20194;-77
2023/03/04 06:06:45;;;;;;;3.10;0.50;;;25.40;99.90;;;;;;5016998;28;20585;-75
2023/03/04 06:09:16;;;;;;;5.85;0.85;;;25.40;99.90;;;;;;5035357;28;20195;-79
2023/03/04 06:11:47;;;;;;;3.10;0.70;;;25.40;99.90;;;;;;5035815;28;20191;-77
2023/03/04 06:14:21;;;;;;;2.03;0.60;;;25.20;99.90;;;;;;5035255;28;20279;-79
2023/03/04 06:16:52;;;;;;;3.65;0.75;;;25.10;99.90;;;;;;5035427;28;20277;-79
2023/03/04 06:19:23;;;;;;;1.90;0.80;;;25.10;99.90;;;;;;5034963;28;20191;-78
2023/03/04 06:21:54;;;;;;;2.90;0.50;;;25.10;99.90;;;;;;5035161;28;20567;-79
2023/03/04 06:24:27;;;;;;;4.18;0.95;;;25.10;99.90;;;;;;5035315;28;20630;-79
2023/03/04 06:26:58;;;;;;;2.85;0.70;;;25.20;99.90;;;;;;5034995;28;20680;-79
2023/03/04 06:29:31;;;;;;;3.38;0.80;;;25.20;99.90;;;;;;5034922;28;20289;-81
2023/03/04 06:32:02;;;;;;;2.15;0.70;;;25.20;99.90;;;;;;5034803;28;20190;-78
2023/03/04 06:34:33;;;;;;;2.53;0.70;;;25.20;99.90;;;;;;5034768;28;20591;-77
2023/03/04 06:37:04;;;;;;;5.40;0.88;;;25.20;99.90;;;;;;5034793;28;20196;-75
2023/03/04 06:39:36;;;;;;;3.80;0.90;;;25.20;99.90;;;;;;5034654;28;20190;-75
2023/03/04 06:42:07;;;;;;;3.75;1.00;;;25.10;99.90;;;;;;5034712;28;20195;-79
2023/03/04 06:44:40;;;;;;;4.65;0.88;;;25.00;99.90;;;;;;5034661;28;20245;-79
2023/03/04 06:47:11;;;;;;;2.85;0.70;;;24.90;99.90;;;;;;5033924;28;20187;-78
2023/03/04 06:49:42;;;;;;;9.68;1.20;;;24.90;99.90;;;;;;5034654;28;20190;-78
2023/03/04 06:52:13;;;;;;;2.65;0.70;;;25.00;99.90;;;;;;5034394;28;20194;-73
2023/03/04 06:54:44;;;;;;;4.57;0.68;;;24.90;99.90;;;;;;5034267;28;20214;-75
2023/03/04 06:57:15;;;;;;;2.70;0.57;;;24.80;99.90;;;;;;5034417;28;20186;-76
2023/03/04 06:59:48;;;;;;;2.50;0.60;;;24.80;99.90;;;;;;5034207;28;20590;-75
2023/03/04 07:02:20;;;;;;;6.53;0.90;;;24.60;99.90;;;;;;5034200;28;20194;-75
2023/03/04 07:04:51;;;;;;;3.63;0.70;;;24.50;99.90;;;;;;5029139;28;20209;-75
2023/03/04 07:07:22;;;;;;;2.17;0.70;;;24.50;99.90;;;;;;5026540;28;20234;-75
2023/03/04 07:09:54;;;;;;;4.15;0.85;;;24.50;99.90;;;;;;5014447;28;20227;-78
2023/03/04 07:12:25;;;;;;;4.30;0.90;;;24.40;99.90;;;;;;5014397;28;20229;-77
2023/03/04 07:14:58;;;;;;;6.03;0.90;;;24.40;99.90;;;;;;5014323;28;20237;-77
2023/03/04 07:17:33;;;;;;;2.85;0.57;;;24.30;99.90;;;;;;5014883;28;20203;-75
2023/03/04 07:20:04;;;;;;;4.82;0.90;;;24.20;99.90;;;;;;5014372;28;20277;-75
2023/03/04 07:22:35;;;;;;;1.77;0.88;;;24.10;99.90;;;;;;5014327;28;20221;-74
2023/03/04 07:27:53;;;;;;;5.05;1.05;;;24.00;99.90;;;;;;5004280;28;20274;-74
2023/03/04 07:30:27;;;;;;;6.13;1.42;;;24.00;99.90;;;;;;5005815;28;20206;-77
2023/03/04 07:33:00;;;;;;;2.95;0.75;;;24.00;99.90;;;;;;5013304;28;20195;-76
2023/03/04 07:35:31;;;;;;;4.72;1.00;;;24.00;99.90;;;;;;5013816;28;20218;-75
2023/03/04 07:38:02;;;;;;;3.25;0.80;;;24.10;99.90;;;;;;5013371;28;20249;-76
2023/03/04 07:40:34;;;;;;;3.40;0.70;;;24.10;99.90;;;;;;5013439;28;20198;-75
2023/03/04 07:43:05;;;;;;;4.45;0.68;;;24.10;99.90;;;;;;5013498;28;20664;-76
2023/03/04 07:45:38;;;;;;;4.32;0.90;;;24.10;99.90;;;;;;5013688;28;20195;-75
2023/03/04 07:48:09;;;;;;;4.15;0.98;;;24.00;99.90;;;;;;5013012;28;20205;-76
2023/03/04 07:50:40;;;;;;;5.13;0.88;;;24.00;99.90;;;;;;5013159;28;20199;-76
2023/03/04 07:53:12;;;;;;;3.35;0.90;;;24.00;99.90;;;;;;5013283;28;20203;-74
2023/03/04 07:55:43;;;;;;;5.65;1.20;;;23.90;99.90;;;;;;5012711;28;20661;-74
2023/03/04 07:58:18;;;;;;;4.50;1.00;;;23.80;99.90;;;;;;5012955;28;20658;-76
2023/03/04 08:00:51;;;;;;;5.43;1.20;;;23.80;99.90;;;;;;5009847;28;20304;-79
2023/03/04 08:03:23;;;;;;;2.97;0.93;;;23.70;99.90;;;;;;5012913;28;20207;-75
2023/03/04 08:08:23;;;;;;;5.05;1.20;;;23.70;99.90;;;;;;5058973;28;20671;-83
2023/03/04 08:10:58;;;;;;;5.75;0.93;;;23.60;99.90;;;;;;5059938;28;20558;-82
2023/03/04 08:13:29;;;;;;;2.95;0.88;;;23.60;99.90;;;;;;5055506;28;20197;-82
2023/03/04 08:16:02;;;;;;;3.50;0.70;;;23.50;99.90;;;;;;5053705;28;20193;-77
2023/03/04 08:18:33;;;;;;;7.35;2.60;;;23.50;99.90;;;;;;5052989;28;20208;-82
2023/03/04 08:21:04;;;;;;;4.68;1.20;;;23.50;99.90;;;;;;5052815;28;20197;-81
2023/03/04 08:23:35;;;;;;;4.40;1.30;;;23.50;99.90;;;;;;5052900;28;20201;-77
2023/03/04 08:26:10;;;;;;;4.47;1.88;;;23.40;99.90;;;;;;5053426;28;20201;-83
2023/03/04 08:28:41;;;;;;;4.85;0.95;;;23.40;99.90;;;;;;5068368;28;20579;-78
2023/03/04 08:31:15;;;;;;;4.82;1.10;;;23.40;99.90;;;;;;5056751;28;20197;-84
2023/03/04 08:33:47;;;;;;;3.28;0.90;;;23.40;99.90;;;;;;5052745;28;20226;-83
2023/03/04 08:36:18;;;;;;;3.00;0.80;;;23.30;99.90;;;;;;5053875;28;20213;-76
2023/03/04 08:38:49;;;;;;;4.72;1.08;;;23.30;99.90;;;;;;5052789;28;20679;-77
2023/03/04 08:41:21;;;;;;;4.00;0.80;;;23.30;99.90;;;;;;5053021;28;20193;-81
2023/03/04 08:43:52;;;;;;;4.05;0.77;;;23.30;99.90;;;;;;5060155;28;20201;-77
2023/03/04 08:46:25;;;;;;;2.70;1.00;;;23.20;99.90;;;;;;5058358;28;20201;-78
2023/03/04 08:48:56;;;;;;;4.93;1.10;;;23.20;99.90;;;;;;5053329;28;20198;-83
2023/03/04 08:51:27;;;;;;;4.18;1.00;;;23.20;99.90;;;;;;5053256;28;20202;-77
2023/03/04 08:53:59;;;;;;;3.80;0.90;;;23.10;99.90;;;;;;5052852;28;20222;-80
2023/03/04 08:56:30;;;;;;;4.75;0.80;;;23.10;99.90;;;;;;5052906;28;20201;-76
2023/03/04 08:59:01;;;;;;;6.38;1.20;;;23.10;99.90;;;;;;5053181;28;20197;-90
2023/03/04 09:01:34;;;;;;;5.22;1.10;;;23.00;99.90;;;;;;5052873;28;20201;-89
2023/03/04 09:04:06;;;;;;;4.55;0.88;;;23.00;99.90;;;;;;5057361;28;20298;-77
2023/03/04 09:06:37;;;;;;;8.07;1.10;;;23.00;99.90;;;;;;5052312;28;20233;-80
2023/03/04 09:09:08;;;;;;;7.65;1.30;;;22.90;99.90;;;;;;5052714;28;20212;-76
2023/03/04 09:11:39;;;;;;;5.45;1.23;;;22.90;99.90;;;;;;5056354;28;20201;-77
2023/03/04 09:14:10;;;;;;;4.63;1.10;;;22.90;99.90;;;;;;5056418;28;20221;-77
2023/03/04 09:16:43;;;;;;;5.00;0.85;;;22.90;99.90;;;;;;5056446;28;20282;-76
2023/03/04 09:19:14;;;;;;;5.40;1.00;;;22.90;99.90;;;;;;5056151;28;20200;-85
2023/03/04 09:21:45;;;;;;;6.10;1.17;;;22.90;99.90;;;;;;5056513;28;20208;-85
2023/03/04 09:24:16;;;;;;;3.22;0.93;;;22.80;99.90;;;;;;5055449;28;20691;-89
2023/03/04 09:26:51;;;;;;;2.17;0.70;;;22.80;99.90;;;;;;5056640;28;20216;-82
2023/03/04 09:29:22;;;;;;;2.65;0.75;;;22.80;99.90;;;;;;5056444;28;20201;-81
2023/03/04 09:31:55;;;;;;;4.88;0.90;;;22.80;99.90;;;;;;5056668;28;20205;-79
2023/03/04 09:34:27;;;;;;;4.53;0.90;;;22.80;99.90;;;;;;5055757;28;20228;-81
2023/03/04 09:36:58;;;;;;;4.07;0.80;;;22.80;99.90;;;;;;5055759;28;20220;-80
2023/03/04 09:39:29;;;;;;;4.07;0.80;;;22.80;99.90;;;;;;5056178;28;20224;-78
2023/03/04 09:42:01;;;;;;;2.40;0.40;;;22.80;99.90;;;;;;5055801;28;20554;-79
2023/03/04 09:44:35;;;;;;;3.55;0.50;;;22.80;99.90;;;;;;5055713;28;20208;-77
2023/03/04 09:47:13;;;;;;;3.13;0.50;;;22.70;99.90;;;;;;5055811;28;20523;-80
2023/03/04 09:49:48;;;;;;;3.38;0.90;;;22.70;99.90;;;;;;5060139;28;20225;-79
2023/03/04 09:52:29;;;;;;;3.63;0.75;;;22.70;99.90;;;;;;5055439;28;20208;-78
2023/03/04 09:55:13;;;;;;;5.38;0.90;;;22.70;99.90;;;;;;5060682;28;20217;-78
2023/03/04 09:57:50;;;;;;;2.30;0.63;;;22.70;99.90;;;;;;5060160;28;20647;-78
2023/03/04 10:00:23;;;;;;;4.63;0.95;;;22.60;99.90;;;;;;5066158;28;20204;-79
2023/03/04 10:03:21;;;;;;;4.72;1.23;;;22.60;99.90;;;;;;5066641;28;20205;-78
2023/03/04 10:05:59;;;;;;;4.60;0.90;;;22.60;99.90;;;;;;5068902;28;20228;-84
2023/03/04 10:08:43;;;;;;;4.00;0.90;;;22.60;99.90;;;;;;5063935;28;20227;-79
2023/03/04 10:11:18;;;;;;;3.75;0.80;;;22.60;99.90;;;;;;5056164;28;20680;-80
2023/03/04 10:14:03;;;;;;;5.03;0.90;;;22.60;99.90;;;;;;5055293;28;20280;-76
2023/03/04 10:16:39;;;;;;;3.60;0.88;;;22.50;99.90;;;;;;5056042;28;20208;-91
2023/03/04 10:19:29;;;;;;;4.45;0.77;;;22.50;99.90;;;;;;5055607;28;20197;-89
2023/03/04 10:22:00;;;;;;;1.67;0.60;;;22.60;99.90;;;;;;5054458;28;20547;-85
2023/03/04 10:24:33;;;;;;;3.13;0.70;;;22.50;99.90;;;;;;5054941;28;20198;-82
2023/03/04 10:27:07;;;;;;;3.58;0.80;;;22.50;99.90;;;;;;5055058;28;20571;-81
2023/03/04 10:29:38;;;;;;;4.13;0.90;;;22.50;99.90;;;;;;5055180;28;20209;-84
2023/03/04 10:32:13;;;;;;;4.43;1.10;;;22.50;99.90;;;;;;5061683;28;20583;-81
2023/03/04 10:34:47;;;;;;;1.65;0.60;;;22.50;99.90;;;;;;5056524;28;20217;-78
2023/03/04 10:37:18;;;;;;;2.78;0.70;;;22.50;99.90;;;;;;5054968;28;20197;-79
2023/03/04 10:39:51;;;;;;;2.83;0.73;;;22.50;99.90;;;;;;5061932;28;20213;-84
2023/03/04 10:42:35;;;;;;;3.80;0.85;;;22.40;99.90;;;;;;5056072;28;20247;-82
2023/03/04 10:45:21;;;;;;;3.25;0.80;;;22.40;99.90;;;;;;5057214;28;20241;-86
2023/03/04 10:47:57;;;;;;;4.65;0.70;;;22.40;99.90;;;;;;5057568;28;20267;-84
2023/03/04 10:50:31;;;;;;;3.67;0.70;;;22.40;99.90;;;;;;5063065;28;20208;-84
2023/03/04 10:53:02;;;;;;;2.85;0.68;;;22.40;99.90;;;;;;5055079;28;20671;-79
2023/03/04 10:55:44;;;;;;;1.90;0.57;;;22.40;99.90;;;;;;5056879;28;20217;-90
2023/03/04 10:58:20;;;;;;;3.55;0.40;;;22.40;99.90;;;;;;5055418;28;20671;-78
2023/03/04 11:01:04;;;;;;;3.30;0.60;;;22.40;99.90;;;;;;5065688;28;20238;-78
2023/03/04 11:03:38;;;;;;;2.38;0.68;;;22.40;99.90;;;;;;5058840;28;20204;-83
2023/03/04 11:06:23;;;;;;;7.35;0.95;;;22.30;99.90;;;;;;5057204;28;20231;-81
2023/03/04 11:09:01;;;;;;;4.15;1.02;;;22.30;99.90;;;;;;5054588;28;20541;-81
2023/03/04 11:11:41;;;;;;;3.58;0.60;;;22.30;99.90;;;;;;5054545;28;20197;-88
2023/03/04 11:14:20;;;;;;;1.58;0.50;;;22.30;99.90;;;;;;5054127;28;20217;-82
2023/03/04 11:16:58;;;;;;;1.08;0.50;;;22.30;99.90;;;;;;5054163;28;20574;-81
2023/03/04 11:19:33;;;;;;;5.30;0.60;;;22.30;99.90;;;;;;5062586;28;20197;-79
2023/03/04 11:22:08;;;;;;;5.75;1.02;;;22.30;99.90;;;;;;5054307;28;20209;-87
2023/03/04 11:24:42;;;;;;;3.83;0.63;;;22.30;99.90;;;;;;5054383;28;20570;-82
2023/03/04 11:27:20;;;;;;;1.00;0.50;;;22.20;99.90;;;;;;5052801;28;20213;-88
2023/03/04 11:29:57;;;;;;;4.38;0.70;;;22.20;99.90;;;;;;5059337;28;20193;-91
2023/03/04 11:32:30;;;;;;;2.30;0.57;;;22.30;99.90;;;;;;5062327;28;20209;-88
2023/03/04 11:35:06;;;;;;;3.72;0.90;;;22.20;99.90;;;;;;5055736;28;20224;-82
2023/03/04 11:37:45;;;;;;;4.85;0.88;;;22.20;99.90;;;;;;5056149;28;20208;-86
2023/03/04 11:40:22;;;;;;;6.88;1.35;;;22.20;99.90;;;;;;5054507;28;20702;-84
2023/03/04 11:42:59;;;;;;;4.07;0.82;;;22.20;99.90;;;;;;5064874;28;20203;-89
2023/03/04 11:45:42;;;;;;;7.38;0.80;;;22.10;99.90;;;;;;5061715;28;20232;-88
2023/03/04 11:48:21;;;;;;;2.03;0.60;;;22.10;99.90;;;;;;5056778;28;20204;-80
2023/03/04 11:50:55;;;;;;;2.22;0.80;;;22.10;99.90;;;;;;5054836;28;20197;-78
2023/03/04 11:53:48;;;;;;;4.65;0.65;;;22.10;99.90;;;;;;5052815;28;20290;-84
2023/03/04 11:56:29;;;;;;;3.83;0.73;;;22.10;99.90;;;;;;5056778;28;20224;-81
2023/03/04 11:59:30;;;;;;;3.67;0.70;;;22.10;99.90;;;;;;5063954;28;20655;-86
2023/03/04 12:02:15;;;;;;;2.88;0.80;;;22.00;99.90;;;;;;5062796;28;20206;-89
2023/03/04 12:05:26;;;;;;;1.95;0.60;;;22.00;99.90;;;;;;5061113;28;20216;-86
2023/03/04 12:08:25;;;;;;;2.22;0.73;;;22.00;99.90;;;;;;5065120;28;20748;-84
2023/03/04 12:11:05;;;;;;;3.30;0.60;;;22.00;99.90;;;;;;5053165;28;20194;-88
2023/03/04 12:14:10;;;;;;;2.13;0.52;;;21.90;99.90;;;;;;5053007;28;20198;-84
2023/03/04 12:16:58;;;;;;;4.45;0.88;;;21.90;99.90;;;;;;5065065;28;20219;-85
2023/03/04 12:19:40;;;;;;;2.85;0.80;;;21.90;99.90;;;;;;5053935;28;20194;-82
2023/03/04 12:22:37;;;;;;;2.08;0.70;;;21.80;99.90;;;;;;5054679;28;20201;-86
2023/03/04 12:25:42;;;;;;;3.03;0.60;;;21.80;99.90;;;;;;5048154;28;20255;-90
2023/03/04 12:28:58;;;;;;;3.15;0.65;;;21.80;99.90;;;;;;5064326;28;20197;-82
2023/03/04 12:31:42;;;;;;;3.65;0.63;;;21.80;99.90;;;;;;5064105;28;20197;-90
2023/03/04 12:34:45;;;;;;;2.30;0.57;;;21.80;99.90;;;;;;5057038;28;20570;-87
2023/03/04 12:37:32;;;;;;;2.80;0.50;;;21.80;99.90;;;;;;5053588;28;20193;-85
2023/03/04 12:40:37;;;;;;;2.33;0.45;;;21.70;99.90;;;;;;5064814;28;20543;-84
2023/03/04 12:43:25;;;;;;;2.72;0.60;;;21.70;99.90;;;;;;5056353;28;20212;-84
2023/03/04 12:46:06;;;;;;;1.70;0.70;;;21.60;99.90;;;;;;5056468;28;20212;-82
2023/03/04 12:48:46;;;;;;;2.15;0.60;;;21.60;99.90;;;;;;5066695;28;20193;-79
2023/03/04 12:51:30;;;;;;;1.80;0.50;;;21.60;99.90;;;;;;5056146;28;20197;-78
2023/03/04 12:54:19;;;;;;;3.58;0.60;;;21.60;99.90;;;;;;5056631;28;20209;-80
2023/03/04 12:56:55;;;;;;;2.63;0.82;;;21.60;99.90;;;;;;5060474;28;20589;-81
2023/03/04 12:59:29;;;;;;;3.92;0.60;;;21.60;99.90;;;;;;5068254;28;20229;-79
2023/03/04 13:02:21;;;;;;;3.63;0.50;;;21.50;99.90;;;;;;5055550;28;20197;-88
2023/03/04 13:05:02;;;;;;;2.30;0.55;;;21.50;99.90;;;;;;5054011;28;20653;-82
2023/03/04 13:07:45;;;;;;;2.80;0.50;;;21.50;99.90;;;;;;5066213;28;20228;-81
2023/03/04 13:10:18;;;;;;;4.07;0.60;;;21.50;99.90;;;;;;5067458;28;20204;-82
2023/03/04 13:12:51;;;;;;;2.28;0.57;;;21.50;99.90;;;;;;5069549;28;20205;-78
2023/03/04 13:15:35;;;;;;;2.13;0.63;;;21.50;99.90;;;;;;5056042;28;20217;-78
2023/03/04 13:18:35;;;;;;;1.98;0.68;;;21.40;99.90;;;;;;5056121;28;20566;-83
2023/03/04 13:21:22;;;;;;;3.67;0.90;;;21.40;99.90;;;;;;5056274;28;20193;-79
2023/03/04 13:23:54;;;;;;;3.28;0.65;;;21.40;99.90;;;;;;5060940;28;20200;-80
2023/03/04 13:26:29;;;;;;;1.77;0.70;;;21.40;99.90;;;;;;5055936;28;20200;-81
2023/03/04 13:29:37;;;;;;;2.40;0.55;;;21.30;99.90;;;;;;5056395;28;20204;-83